Time,TemperatureF,DewpointF,PressureIn,WindDirection,WindDirectionDegrees,WindSpeedMPH,WindSpeedGustMPH,Humidity,HourlyPrecipIn,Conditions,Clouds,dailyrainin,SoftwareType,DateUTC
2013-11-10 00:00:00,48.9,35.2,29.78,WNW,298,0.0,1.0,59,0.00,,,0.00,Wunderground v.1.15,2013-11-10 06:00:00,
2013-11-10 00:06:00,48.6,34.9,29.78,West,279,0.0,1.0,59,0.00,,,0.00,Wunderground v.1.15,2013-11-10 06:06:00,
2013-11-10 00:12:00,48.3,35.0,29.78,NW,307,0.0,0.0,60,0.00,,,0.00,Wunderground v.1.15,2013-11-10 06:12:00,
2013-11-10 00:17:00,48.2,35.0,29.78,NNW,345,0.0,6.0,60,0.00,,,0.00,Wunderground v.1.15,2013-11-10 06:17:00,
2013-11-10 00:23:00,48.2,34.5,29.78,WNW,292,1.0,1.0,59,0.00,,,0.00,Wunderground v.1.15,2013-11-10 06:23:00,
2013-11-10 00:28:00,48.1,34.4,29.78,WNW,296,1.0,7.0,59,0.00,,,0.00,Wunderground v.1.15,2013-11-10 06:28:00,
2013-11-10 00:34:00,48.1,34.4,29.78,WNW,293,0.0,1.0,59,0.00,,,0.00,Wunderground v.1.15,2013-11-10 06:34:00,
2013-11-10 00:40:00,47.8,34.6,29.79,WNW,295,0.0,1.0,60,0.00,,,0.00,Wunderground v.1.15,2013-11-10 06:40:00,
2013-11-10 00:45:00,6.5,-4.5,29.79,NW,307,0.0,0.0,60,0.00,,,0.00,Wunderground v.1.15,2013-11-10 06:45:00,
2013-11-10 00:51:00,47.7,34.5,29.79,NW,310,0.0,0.0,60,0.00,,,0.00,Wunderground v.1.15,2013-11-10 06:51:00,
2013-11-10 00:56:00,47.1,34.3,29.79,WNW,297,0.0,0.0,61,0.00,,,0.00,Wunderground v.1.15,2013-11-10 06:56:00,
2013-11-10 01:02:00,46.5,34.2,29.79,WNW,302,0.0,0.0,62,0.00,,,0.00,Wunderground v.1.15,2013-11-10 07:02:00,
2013-11-10 01:08:00,46.3,34.4,29.80,WNW,302,0.0,0.0,63,0.00,,,0.00,Wunderground v.1.15,2013-11-10 07:08:00,
2013-11-10 01:13:00,46.3,34.4,29.80,WNW,302,0.0,0.0,63,0.00,,,0.00,Wunderground v.1.15,2013-11-10 07:13:00,
2013-11-10 01:19:00,46.3,34.8,29.80,WNW,302,0.0,0.0,64,0.00,,,0.00,Wunderground v.1.15,2013-11-10 07:19:00,
2013-11-10 01:25:00,45.5,34.4,29.80,WNW,288,0.0,0.0,65,0.00,,,0.00,Wunderground v.1.15,2013-11-10 07:25:00,
2013-11-10 01:30:00,46.1,-99.9,29.80,WNW,302,0.0,0.0,255,0.00,,,0.00,Wunderground v.1.15,2013-11-10 07:30:00,
2013-11-10 01:36:00,44.7,34.0,29.80,WNW,302,0.0,0.0,66,0.00,,,0.00,Wunderground v.1.15,2013-11-10 07:36:00,
2013-11-10 01:41:00,44.4,33.7,29.80,WNW,300,0.0,0.0,66,0.00,,,0.00,Wunderground v.1.15,2013-11-10 07:41:00,
2013-11-10 01:47:00,44.3,33.3,29.81,WNW,299,0.0,0.0,65,0.00,,,0.00,Wunderground v.1.15,2013-11-10 07:47:00,
2013-11-10 01:53:00,45.5,34.8,29.81,WNW,302,0.0,2.0,66,0.00,,,0.00,Wunderground v.1.15,2013-11-10 07:53:00,
2013-11-10 01:58:00,44.2,33.6,29.81,WNW,286,0.0,2.0,66,0.00,,,0.00,Wunderground v.1.15,2013-11-10 07:58:00,
2013-11-10 02:04:00,44.1,-99.9,29.81,WNW,284,0.0,0.0,255,0.00,,,0.00,Wunderground v.1.15,2013-11-10 08:04:00,
2013-11-10 02:09:00,44.1,33.5,29.81,WNW,294,0.0,0.0,66,0.00,,,0.00,Wunderground v.1.15,2013-11-10 08:09:00,
2013-11-10 02:15:00,43.9,33.3,29.81,WNW,286,0.0,0.0,66,0.00,,,0.00,Wunderground v.1.15,2013-11-10 08:15:00,
2013-11-10 02:20:00,43.7,33.5,29.82,WNW,302,0.0,1.0,67,0.00,,,0.00,Wunderground v.1.15,2013-11-10 08:20:00,
2013-11-10 02:26:00,43.5,33.3,29.82,NW,320,0.0,1.0,67,0.00,,,0.00,Wunderground v.1.15,2013-11-10 08:26:00,
2013-11-10 02:32:00,43.6,33.0,29.82,NW,319,0.0,0.0,66,0.00,,,0.00,Wunderground v.1.15,2013-11-10 08:32:00,
2013-11-10 02:37:00,43.4,33.2,29.82,NW,311,0.0,0.0,67,0.00,,,0.00,Wunderground v.1.15,2013-11-10 08:37:00,
2013-11-10 02:43:00,4.8,-4.1,29.82,NW,313,0.0,0.0,66,0.00,,,0.00,Wunderground v.1.15,2013-11-10 08:43:00,
2013-11-10 02:48:00,43.1,32.9,29.82,WNW,302,0.0,0.0,67,0.00,,,0.00,Wunderground v.1.15,2013-11-10 08:48:00,
2013-11-10 02:54:00,43.0,33.2,29.82,NW,319,0.0,0.0,68,0.00,,,0.00,Wunderground v.1.15,2013-11-10 08:54:00,
2013-11-10 03:00:00,42.9,33.1,29.82,NW,311,0.0,0.0,68,0.00,,,0.00,Wunderground v.1.15,2013-11-10 09:00:00,
2013-11-10 03:05:00,43.3,33.4,29.82,WNW,287,0.0,0.0,68,0.00,,,0.00,Wunderground v.1.15,2013-11-10 09:05:00,
2013-11-10 03:11:00,42.7,32.9,29.82,WNW,303,0.0,0.0,68,0.00,,,0.00,Wunderground v.1.15,2013-11-10 09:11:00,
2013-11-10 03:17:00,42.5,33.0,29.82,WNW,302,0.0,0.0,69,0.00,,,0.00,Wunderground v.1.15,2013-11-10 09:17:00,
2013-11-10 03:22:00,42.4,32.9,29.83,WNW,302,0.0,0.0,69,0.00,,,0.00,Wunderground v.1.15,2013-11-10 09:22:00,
2013-11-10 03:28:00,42.2,33.1,29.83,WNW,299,0.0,0.0,70,0.00,,,0.00,Wunderground v.1.15,2013-11-10 09:28:00,
2013-11-10 03:33:00,42.0,32.9,29.83,NW,316,0.0,0.0,70,0.00,,,0.00,Wunderground v.1.15,2013-11-10 09:33:00,
2013-11-10 03:39:00,41.8,32.4,29.83,NW,317,0.0,0.0,69,0.00,,,0.00,Wunderground v.1.15,2013-11-10 09:39:00,
2013-11-10 03:44:00,41.6,32.5,29.83,WNW,287,0.0,0.0,70,0.00,,,0.00,Wunderground v.1.15,2013-11-10 09:44:00,
2013-11-10 03:49:00,41.5,32.4,29.83,WNW,287,0.0,0.0,70,0.00,,,0.00,Wunderground v.1.15,2013-11-10 09:49:00,
2013-11-10 03:55:00,41.3,31.9,29.83,WNW,290,0.0,0.0,69,0.00,,,0.00,Wunderground v.1.15,2013-11-10 09:55:00,
2013-11-10 04:00:00,41.2,31.8,29.83,WNW,293,0.0,0.0,69,0.00,,,0.00,Wunderground v.1.15,2013-11-10 10:00:00,
2013-11-10 04:06:00,41.0,31.6,29.83,NW,316,1.0,1.0,69,0.00,,,0.00,Wunderground v.1.15,2013-11-10 10:06:00,
2013-11-10 04:11:00,41.1,31.7,29.84,WNW,290,1.0,1.0,69,0.00,,,0.00,Wunderground v.1.15,2013-11-10 10:11:00,
2013-11-10 04:17:00,41.0,31.6,29.84,WNW,287,0.0,0.0,69,0.00,,,0.00,Wunderground v.1.15,2013-11-10 10:17:00,
2013-11-10 04:22:00,40.9,31.5,29.84,WNW,299,0.0,0.0,69,0.00,,,0.00,Wunderground v.1.15,2013-11-10 10:22:00,
2013-11-10 04:28:00,40.8,31.4,29.84,WNW,287,0.0,0.0,69,0.00,,,0.00,Wunderground v.1.15,2013-11-10 10:28:00,
2013-11-10 04:33:00,40.7,31.3,29.84,WNW,297,0.0,0.0,69,0.00,,,0.00,Wunderground v.1.15,2013-11-10 10:33:00,
2013-11-10 04:38:00,40.5,31.5,29.85,WNW,297,0.0,0.0,70,0.00,,,0.00,Wunderground v.1.15,2013-11-10 10:38:00,
2013-11-10 04:39:00,40.5,31.5,29.84,WNW,286,0.0,2.0,70,0.00,,,0.00,Wunderground v.1.15,2013-11-10 10:39:00,
2013-11-10 04:45:00,40.2,31.2,29.84,WNW,294,0.0,0.0,70,0.00,,,0.00,Wunderground v.1.15,2013-11-10 10:45:00,
2013-11-10 04:50:00,40.1,31.1,29.85,WNW,293,0.0,0.0,70,0.00,,,0.00,Wunderground v.1.15,2013-11-10 10:50:00,
2013-11-10 04:55:00,40.0,31.0,29.85,WNW,293,0.0,0.0,70,0.00,,,0.00,Wunderground v.1.15,2013-11-10 10:55:00,
2013-11-10 05:01:00,39.8,31.2,29.85,WNW,293,0.0,0.0,71,0.00,,,0.00,Wunderground v.1.15,2013-11-10 11:01:00,
2013-11-10 05:06:00,39.5,30.9,29.86,WNW,293,0.0,0.0,71,0.00,,,0.00,Wunderground v.1.15,2013-11-10 11:06:00,
2013-11-10 05:11:00,39.3,30.7,29.86,WNW,293,0.0,0.0,71,0.00,,,0.00,Wunderground v.1.15,2013-11-10 11:11:00,
2013-11-10 05:17:00,39.0,30.7,29.86,WNW,293,0.0,0.0,72,0.00,,,0.00,Wunderground v.1.15,2013-11-10 11:17:00,
2013-11-10 05:22:00,38.8,31.2,29.86,WNW,293,0.0,0.0,74,0.00,,,0.00,Wunderground v.1.15,2013-11-10 11:22:00,
2013-11-10 05:27:00,38.4,31.2,29.86,WNW,293,0.0,0.0,75,0.00,,,0.00,Wunderground v.1.15,2013-11-10 11:27:00,
2013-11-10 05:33:00,38.3,31.1,29.86,WNW,293,0.0,0.0,75,0.00,,,0.00,Wunderground v.1.15,2013-11-10 11:33:00,
2013-11-10 05:38:00,37.9,31.0,29.87,West,280,0.0,0.0,76,0.00,,,0.00,Wunderground v.1.15,2013-11-10 11:38:00,
2013-11-10 05:43:00,37.8,30.9,29.87,WNW,283,0.0,0.0,76,0.00,,,0.00,Wunderground v.1.15,2013-11-10 11:43:00,
2013-11-10 05:49:00,38.0,31.1,29.87,WNW,300,0.0,0.0,76,0.00,,,0.00,Wunderground v.1.15,2013-11-10 11:49:00,
2013-11-10 05:54:00,38.1,30.9,29.87,WNW,300,0.0,0.0,75,0.00,,,0.00,Wunderground v.1.15,2013-11-10 11:54:00,
2013-11-10 05:59:00,38.1,30.9,29.87,WNW,297,0.0,6.0,75,0.00,,,0.00,Wunderground v.1.15,2013-11-10 11:59:00,
2013-11-10 06:05:00,38.2,31.0,29.87,NW,304,0.0,0.0,75,0.00,,,0.00,Wunderground v.1.15,2013-11-10 12:05:00,
2013-11-10 06:10:00,38.2,31.0,29.87,NW,306,0.0,5.0,75,0.00,,,0.00,Wunderground v.1.15,2013-11-10 12:10:00,
2013-11-10 06:16:00,38.2,31.0,29.88,WNW,291,0.0,0.0,75,0.00,,,0.00,Wunderground v.1.15,2013-11-10 12:16:00,
2013-11-10 06:21:00,38.1,30.9,29.88,WNW,291,0.0,0.0,75,0.00,,,0.00,Wunderground v.1.15,2013-11-10 12:21:00,
2013-11-10 06:26:00,37.9,30.7,29.88,NW,317,0.0,6.0,75,0.00,,,0.00,Wunderground v.1.15,2013-11-10 12:26:00,
2013-11-10 06:32:00,37.8,30.6,29.88,NW,319,1.0,1.0,75,0.00,,,0.00,Wunderground v.1.15,2013-11-10 12:32:00,
2013-11-10 06:37:00,37.7,30.2,29.88,WNW,302,1.0,2.0,74,0.00,,,0.00,Wunderground v.1.15,2013-11-10 12:37:00,
2013-11-10 06:42:00,37.5,30.0,29.88,NW,324,1.0,1.0,74,0.00,,,0.00,Wunderground v.1.15,2013-11-10 12:42:00,
2013-11-10 06:48:00,37.5,29.6,29.89,NW,312,0.0,1.0,73,0.00,,,0.00,Wunderground v.1.15,2013-11-10 12:48:00,
2013-11-10 06:53:00,37.4,29.5,29.89,NW,316,1.0,4.0,73,0.00,,,0.00,Wunderground v.1.15,2013-11-10 12:53:00,
2013-11-10 06:59:00,37.3,29.4,29.89,North,350,2.0,9.0,73,0.00,,,0.00,Wunderground v.1.15,2013-11-10 12:59:00,
2013-11-10 07:04:00,37.2,29.3,29.90,NW,321,2.0,2.0,73,0.00,,,0.00,Wunderground v.1.15,2013-11-10 13:04:00,
2013-11-10 07:09:00,37.1,29.6,29.90,NW,311,2.0,6.0,74,0.00,,,0.00,Wunderground v.1.15,2013-11-10 13:09:00,
2013-11-10 07:15:00,37.0,29.5,29.90,NW,309,2.0,5.0,74,0.00,,,0.00,Wunderground v.1.15,2013-11-10 13:15:00,
2013-11-10 07:20:00,37.0,29.5,29.90,NW,321,3.0,5.0,74,0.00,,,0.00,Wunderground v.1.15,2013-11-10 13:20:00,
2013-11-10 07:25:00,37.1,29.6,29.90,NW,323,2.0,5.0,74,0.00,,,0.00,Wunderground v.1.15,2013-11-10 13:25:00,
2013-11-10 07:31:00,37.2,29.3,29.91,NNW,342,2.0,9.0,73,0.00,,,0.00,Wunderground v.1.15,2013-11-10 13:31:00,
2013-11-10 07:36:00,37.5,29.3,29.91,NNW,344,1.0,2.0,72,0.00,,,0.00,Wunderground v.1.15,2013-11-10 13:36:00,
2013-11-10 07:41:00,37.4,29.5,29.91,NNW,336,1.0,2.0,73,0.00,,,0.00,Wunderground v.1.15,2013-11-10 13:41:00,
2013-11-10 07:47:00,37.6,29.7,29.91,NW,316,1.0,5.0,73,0.00,,,0.00,Wunderground v.1.15,2013-11-10 13:47:00,
2013-11-10 07:52:00,37.8,29.9,29.91,NW,317,1.0,1.0,73,0.00,,,0.00,Wunderground v.1.15,2013-11-10 13:52:00,
2013-11-10 07:57:00,38.4,30.5,29.91,NW,313,1.0,2.0,73,0.00,,,0.00,Wunderground v.1.15,2013-11-10 13:57:00,
2013-11-10 08:02:00,38.3,-99.9,29.91,NNW,346,1.0,1.0,255,0.00,,,0.00,Wunderground v.1.15,2013-11-10 14:02:00,
2013-11-10 08:08:00,38.6,30.4,29.91,NNW,331,1.0,4.0,72,0.00,,,0.00,Wunderground v.1.15,2013-11-10 14:08:00,
2013-11-10 08:13:00,38.7,30.1,29.92,NW,323,1.0,2.0,71,0.00,,,0.00,Wunderground v.1.15,2013-11-10 14:13:00,
2013-11-10 08:18:00,38.8,30.2,29.92,NNW,332,1.0,5.0,71,0.00,,,0.00,Wunderground v.1.15,2013-11-10 14:18:00,
2013-11-10 08:24:00,39.0,30.4,29.92,NNW,332,1.0,1.0,71,0.00,,,0.00,Wunderground v.1.15,2013-11-10 14:24:00,
2013-11-10 08:29:00,39.1,30.5,29.92,NNW,333,1.0,6.0,71,0.00,,,0.00,Wunderground v.1.15,2013-11-10 14:29:00,
2013-11-10 08:35:00,39.5,30.9,29.92,North,355,1.0,1.0,71,0.00,,,0.00,Wunderground v.1.15,2013-11-10 14:35:00,
2013-11-10 08:40:00,39.9,30.9,29.92,NW,313,1.0,1.0,70,0.00,,,0.00,Wunderground v.1.15,2013-11-10 14:40:00,
2013-11-10 08:46:00,40.3,30.6,29.93,North,350,1.0,9.0,68,0.00,,,0.00,Wunderground v.1.15,2013-11-10 14:46:00,
2013-11-10 08:51:00,40.4,30.3,29.93,NNW,327,2.0,9.0,67,0.00,,,0.00,Wunderground v.1.15,2013-11-10 14:51:00,
2013-11-10 08:56:00,40.4,30.3,29.93,North,360,2.0,2.0,67,0.00,,,0.00,Wunderground v.1.15,2013-11-10 14:56:00,
2013-11-10 09:02:00,-999.9,-99.9,29.93,NW,323,2.0,4.0,66,0.00,,,0.00,Wunderground v.1.15,2013-11-10 15:02:00,
2013-11-10 09:08:00,40.8,30.3,29.93,NNW,334,3.0,4.0,66,0.00,,,0.00,Wunderground v.1.15,2013-11-10 15:08:00,
2013-11-10 09:13:00,40.8,30.3,29.93,North,9,2.0,5.0,66,0.00,,,0.00,Wunderground v.1.15,2013-11-10 15:13:00,
2013-11-10 09:18:00,41.2,30.3,29.93,NNW,332,1.0,5.0,65,0.00,,,0.00,Wunderground v.1.15,2013-11-10 15:18:00,
2013-11-10 09:24:00,41.3,30.0,29.93,NNE,22,1.0,6.0,64,0.00,,,0.00,Wunderground v.1.15,2013-11-10 15:24:00,
2013-11-10 09:29:00,41.5,29.8,29.93,NNE,21,1.0,6.0,63,0.00,,,0.00,Wunderground v.1.15,2013-11-10 15:29:00,
2013-11-10 09:35:00,41.9,30.2,29.93,NW,313,1.0,2.0,63,0.00,,,0.00,Wunderground v.1.15,2013-11-10 15:35:00,
2013-11-10 09:40:00,41.9,29.8,29.93,NW,323,2.0,5.0,62,0.00,,,0.00,Wunderground v.1.15,2013-11-10 15:40:00,
2013-11-10 09:45:00,42.0,29.9,29.93,NNW,344,3.0,6.0,62,0.00,,,0.00,Wunderground v.1.15,2013-11-10 15:45:00,
2013-11-10 09:50:00,42.3,29.8,29.93,NNE,15,2.0,6.0,61,0.00,,,0.00,Wunderground v.1.15,2013-11-10 15:50:00,
2013-11-10 09:56:00,42.4,30.3,29.92,North,350,2.0,5.0,62,0.00,,,0.00,Wunderground v.1.15,2013-11-10 15:56:00,
2013-11-10 10:01:00,42.5,30.4,29.93,NNW,342,1.0,5.0,62,0.00,,,0.00,Wunderground v.1.15,2013-11-10 16:01:00,
2013-11-10 10:07:00,42.8,30.7,29.93,NNW,348,1.0,2.0,62,0.00,,,0.00,Wunderground v.1.15,2013-11-10 16:07:00,
2013-11-10 10:12:00,43.1,30.6,29.93,North,355,1.0,1.0,61,0.00,,,0.00,Wunderground v.1.15,2013-11-10 16:12:00,
2013-11-10 10:17:00,43.5,30.5,29.93,NNW,348,1.0,1.0,60,0.00,,,0.00,Wunderground v.1.15,2013-11-10 16:17:00,
2013-11-10 10:23:00,43.6,30.6,29.92,North,350,1.0,1.0,60,0.00,,,0.00,Wunderground v.1.15,2013-11-10 16:23:00,
2013-11-10 10:28:00,43.8,31.2,29.92,NE,51,1.0,1.0,61,0.00,,,0.00,Wunderground v.1.15,2013-11-10 16:28:00,
2013-11-10 10:33:00,44.3,30.9,29.92,NW,307,0.0,0.0,59,0.00,,,0.00,Wunderground v.1.15,2013-11-10 16:33:00,
2013-11-10 10:39:00,44.7,31.2,29.92,North,5,0.0,0.0,59,0.00,,,0.00,Wunderground v.1.15,2013-11-10 16:39:00,
2013-11-10 10:44:00,45.0,31.1,29.92,NNE,22,0.0,2.0,58,0.00,,,0.00,Wunderground v.1.15,2013-11-10 16:44:00,
2013-11-10 10:50:00,44.9,31.4,29.92,NNE,16,0.0,2.0,59,0.00,,,0.00,Wunderground v.1.15,2013-11-10 16:50:00,
2013-11-10 10:55:00,45.5,31.1,29.92,NE,38,0.0,0.0,57,0.00,,,0.00,Wunderground v.1.15,2013-11-10 16:55:00,
2013-11-10 11:00:00,45.6,30.3,29.92,NE,55,1.0,3.0,55,0.00,,,0.00,Wunderground v.1.15,2013-11-10 17:00:00,
2013-11-10 11:06:00,45.6,30.8,29.92,North,5,0.0,0.0,56,0.00,,,0.00,Wunderground v.1.15,2013-11-10 17:06:00,
2013-11-10 11:11:00,45.8,31.0,29.92,NNW,341,0.0,0.0,56,0.00,,,0.00,Wunderground v.1.15,2013-11-10 17:11:00,
2013-11-10 11:16:00,45.8,31.0,29.92,NW,304,0.0,0.0,56,0.00,,,0.00,Wunderground v.1.15,2013-11-10 17:16:00,
2013-11-10 11:22:00,46.1,31.7,29.92,WNW,303,0.0,0.0,57,0.00,,,0.00,Wunderground v.1.15,2013-11-10 17:22:00,
2013-11-10 11:27:00,46.7,30.5,29.91,NNE,24,0.0,0.0,53,0.00,,,0.00,Wunderground v.1.15,2013-11-10 17:27:00,
2013-11-10 11:32:00,47.1,31.3,29.91,NNE,26,0.0,0.0,54,0.00,,,0.00,Wunderground v.1.15,2013-11-10 17:32:00,
2013-11-10 11:38:00,47.4,31.1,29.91,NNE,26,0.0,0.0,53,0.00,,,0.00,Wunderground v.1.15,2013-11-10 17:38:00,
2013-11-10 11:43:00,47.7,30.9,29.91,NW,315,0.0,0.0,52,0.00,,,0.00,Wunderground v.1.15,2013-11-10 17:43:00,
2013-11-10 11:49:00,47.2,30.5,29.90,NW,319,0.0,0.0,52,0.00,,,0.00,Wunderground v.1.15,2013-11-10 17:49:00,
2013-11-10 11:54:00,47.3,30.5,29.90,WNW,288,0.0,0.0,52,0.00,,,0.00,Wunderground v.1.15,2013-11-10 17:54:00,
2013-11-10 11:59:00,47.5,31.2,29.89,WNW,286,0.0,0.0,53,0.00,,,0.00,Wunderground v.1.15,2013-11-10 17:59:00,
2013-11-10 12:05:00,47.9,30.6,29.89,North,360,0.0,0.0,51,0.00,,,0.00,Wunderground v.1.15,2013-11-10 18:05:00,
2013-11-10 12:10:00,48.0,30.7,29.89,North,360,0.0,0.0,51,0.00,,,0.00,Wunderground v.1.15,2013-11-10 18:10:00,
2013-11-10 12:15:00,48.0,31.7,29.88,North,360,0.0,0.0,53,0.00,,,0.00,Wunderground v.1.15,2013-11-10 18:15:00,
2013-11-10 12:21:00,48.4,31.1,29.88,East,89,0.0,2.0,51,0.00,,,0.00,Wunderground v.1.15,2013-11-10 18:21:00,
2013-11-10 12:26:00,48.6,31.3,29.88,NE,49,1.0,1.0,51,0.00,,,0.00,Wunderground v.1.15,2013-11-10 18:26:00,
2013-11-10 12:31:00,48.8,31.5,29.88,NE,40,0.0,1.0,51,0.00,,,0.00,Wunderground v.1.15,2013-11-10 18:31:00,
2013-11-10 12:37:00,49.0,31.2,29.88,NE,40,0.0,0.0,50,0.00,,,0.00,Wunderground v.1.15,2013-11-10 18:37:00,
2013-11-10 12:42:00,49.1,30.2,29.88,North,351,0.0,0.0,48,0.00,,,0.00,Wunderground v.1.15,2013-11-10 18:42:00,
2013-11-10 12:47:00,49.4,31.5,29.88,North,351,0.0,0.0,50,0.00,,,0.00,Wunderground v.1.15,2013-11-10 18:47:00,
2013-11-10 12:53:00,50.2,30.2,29.88,West,277,0.0,0.0,46,0.00,,,0.00,Wunderground v.1.15,2013-11-10 18:53:00,
2013-11-10 12:58:00,50.2,31.2,29.88,SSW,203,0.0,2.0,48,0.00,,,0.00,Wunderground v.1.15,2013-11-10 18:58:00,
2013-11-10 13:04:00,50.0,30.5,29.88,SSW,205,0.0,0.0,47,0.00,,,0.00,Wunderground v.1.15,2013-11-10 19:04:00,
2013-11-10 13:10:00,49.8,30.9,29.87,SSW,205,0.0,0.0,48,0.00,,,0.00,Wunderground v.1.15,2013-11-10 19:10:00,
2013-11-10 13:15:00,50.0,30.5,29.87,SSW,205,0.0,0.0,47,0.00,,,0.00,Wunderground v.1.15,2013-11-10 19:15:00,
2013-11-10 13:21:00,50.1,30.6,29.86,SSW,203,0.0,0.0,47,0.00,,,0.00,Wunderground v.1.15,2013-11-10 19:21:00,
2013-11-10 13:27:00,50.7,31.7,29.86,SSE,153,1.0,5.0,48,0.00,,,0.00,Wunderground v.1.15,2013-11-10 19:27:00,
2013-11-10 13:32:00,50.7,31.2,29.85,South,170,1.0,1.0,47,0.00,,,0.00,Wunderground v.1.15,2013-11-10 19:32:00,
2013-11-10 13:38:00,50.9,30.8,29.85,SSE,165,0.0,1.0,46,0.00,,,0.00,Wunderground v.1.15,2013-11-10 19:38:00,
2013-11-10 13:43:00,50.8,30.7,29.85,SSE,165,0.0,0.0,46,0.00,,,0.00,Wunderground v.1.15,2013-11-10 19:43:00,
2013-11-10 13:48:00,50.8,30.7,29.85,South,186,0.0,0.0,46,0.00,,,0.00,Wunderground v.1.15,2013-11-10 19:48:00,
2013-11-10 13:54:00,50.8,30.7,29.85,South,188,0.0,0.0,46,0.00,,,0.00,Wunderground v.1.15,2013-11-10 19:54:00,
2013-11-10 13:59:00,51.4,-99.9,29.85,SSW,193,0.0,0.0,255,0.00,,,0.00,Wunderground v.1.15,2013-11-10 19:59:00,
2013-11-10 14:05:00,51.4,30.7,29.84,SW,236,0.0,0.0,45,0.00,,,0.00,Wunderground v.1.15,2013-11-10 20:05:00,
2013-11-10 14:10:00,51.9,-99.9,29.84,SW,236,0.0,0.0,255,0.00,,,0.00,Wunderground v.1.15,2013-11-10 20:10:00,
2013-11-10 14:16:00,52.6,30.1,29.84,SW,236,0.0,0.0,42,0.00,,,0.00,Wunderground v.1.15,2013-11-10 20:16:00,
2013-11-10 14:21:00,52.6,31.3,29.84,SW,236,0.0,0.0,44,0.00,,,0.00,Wunderground v.1.15,2013-11-10 20:21:00,
2013-11-10 14:26:00,53.1,31.2,29.84,SW,224,0.0,1.0,43,0.00,,,0.00,Wunderground v.1.15,2013-11-10 20:26:00,
2013-11-10 14:32:00,53.1,31.2,29.84,SW,220,0.0,0.0,43,0.00,,,0.00,Wunderground v.1.15,2013-11-10 20:32:00,
2013-11-10 14:37:00,53.2,30.7,29.84,SW,218,0.0,3.0,42,0.00,,,0.00,Wunderground v.1.15,2013-11-10 20:37:00,
2013-11-10 14:43:00,53.5,31.0,29.83,SW,217,0.0,0.0,42,0.00,,,0.00,Wunderground v.1.15,2013-11-10 20:43:00,
2013-11-10 14:49:00,52.9,30.4,29.84,South,186,0.0,0.0,42,0.00,,,0.00,Wunderground v.1.15,2013-11-10 20:49:00,
2013-11-10 14:54:00,52.5,30.0,29.83,SSW,192,0.0,0.0,42,0.00,,,0.00,Wunderground v.1.15,2013-11-10 20:54:00,
2013-11-10 15:00:00,52.4,30.5,29.83,SSW,193,0.0,0.0,43,0.00,,,0.00,Wunderground v.1.15,2013-11-10 21:00:00,
2013-11-10 15:05:00,52.8,30.9,29.83,South,178,0.0,2.0,43,0.00,,,0.00,Wunderground v.1.15,2013-11-10 21:05:00,
2013-11-10 15:11:00,53.0,31.1,29.83,South,176,1.0,2.0,43,0.00,,,0.00,Wunderground v.1.15,2013-11-10 21:11:00,
2013-11-10 15:16:00,53.2,30.7,29.83,South,174,0.0,1.0,42,0.00,,,0.00,Wunderground v.1.15,2013-11-10 21:16:00,
2013-11-10 15:21:00,53.3,31.4,29.83,South,174,0.0,1.0,43,0.00,,,0.00,Wunderground v.1.15,2013-11-10 21:21:00,
2013-11-10 15:27:00,53.4,31.4,29.83,South,174,0.0,0.0,43,0.00,,,0.00,Wunderground v.1.15,2013-11-10 21:27:00,
2013-11-10 15:32:00,53.5,31.5,29.83,South,174,0.0,0.0,43,0.00,,,0.00,Wunderground v.1.15,2013-11-10 21:32:00,
2013-11-10 15:37:00,53.6,31.6,29.82,South,174,0.0,0.0,43,0.00,,,0.00,Wunderground v.1.15,2013-11-10 21:37:00,
2013-11-10 15:43:00,53.4,30.9,29.83,South,184,0.0,0.0,42,0.00,,,0.00,Wunderground v.1.15,2013-11-10 21:43:00,
2013-11-10 15:48:00,53.2,30.7,29.83,South,184,0.0,0.0,42,0.00,,,0.00,Wunderground v.1.15,2013-11-10 21:48:00,
2013-11-10 15:54:00,52.9,31.0,29.82,South,184,0.0,0.0,43,0.00,,,0.00,Wunderground v.1.15,2013-11-10 21:54:00,
2013-11-10 15:59:00,52.6,30.1,29.82,South,184,0.0,0.0,42,0.00,,,0.00,Wunderground v.1.15,2013-11-10 21:59:00,
2013-11-10 16:05:00,52.3,29.9,29.82,South,184,0.0,0.0,42,0.00,,,0.00,Wunderground v.1.15,2013-11-10 22:05:00,
2013-11-10 16:10:00,52.1,30.3,29.82,South,184,0.0,0.0,43,0.00,,,0.00,Wunderground v.1.15,2013-11-10 22:10:00,
2013-11-10 16:16:00,51.9,31.2,29.82,South,184,0.0,0.0,45,0.00,,,0.00,Wunderground v.1.15,2013-11-10 22:16:00,
2013-11-10 16:22:00,51.7,30.5,29.82,South,184,0.0,0.0,44,0.00,,,0.00,Wunderground v.1.15,2013-11-10 22:22:00,
2013-11-10 16:27:00,51.5,30.8,29.82,South,184,0.0,0.0,45,0.00,,,0.00,Wunderground v.1.15,2013-11-10 22:27:00,
2013-11-10 16:33:00,51.7,31.0,29.82,South,184,0.0,0.0,45,0.00,,,0.00,Wunderground v.1.15,2013-11-10 22:33:00,
2013-11-10 16:38:00,51.1,30.5,29.82,South,184,0.0,0.0,45,0.00,,,0.00,Wunderground v.1.15,2013-11-10 22:38:00,
2013-11-10 16:43:00,50.9,30.3,29.82,South,184,0.0,0.0,45,0.00,,,0.00,Wunderground v.1.15,2013-11-10 22:43:00,
2013-11-10 16:49:00,50.5,30.5,29.82,South,184,0.0,0.0,46,0.00,,,0.00,Wunderground v.1.15,2013-11-10 22:49:00,
2013-11-10 16:54:00,50.3,30.8,29.82,South,184,0.0,0.0,47,0.00,,,0.00,Wunderground v.1.15,2013-11-10 22:54:00,
2013-11-10 16:59:00,49.9,30.5,29.82,South,184,0.0,0.0,47,0.00,,,0.00,Wunderground v.1.15,2013-11-10 22:59:00,
2013-11-10 17:05:00,49.5,30.6,29.82,South,184,0.0,0.0,48,0.00,,,0.00,Wunderground v.1.15,2013-11-10 23:05:00,
2013-11-10 17:10:00,49.2,30.3,29.82,South,184,0.0,0.0,48,0.00,,,0.00,Wunderground v.1.15,2013-11-10 23:10:00,
2013-11-10 17:15:00,48.9,30.1,29.82,South,184,0.0,0.0,48,0.00,,,0.00,Wunderground v.1.15,2013-11-10 23:15:00,
2013-11-10 17:21:00,48.7,30.4,29.82,South,184,0.0,0.0,49,0.00,,,0.00,Wunderground v.1.15,2013-11-10 23:21:00,
2013-11-10 17:26:00,48.5,30.7,29.82,South,184,0.0,0.0,50,0.00,,,0.00,Wunderground v.1.15,2013-11-10 23:26:00,
2013-11-10 17:32:00,48.1,30.8,29.81,South,184,0.0,0.0,51,0.00,,,0.00,Wunderground v.1.15,2013-11-10 23:32:00,
2013-11-10 17:38:00,47.5,31.2,29.81,South,184,0.0,0.0,53,0.00,,,0.00,Wunderground v.1.15,2013-11-10 23:38:00,
2013-11-10 17:43:00,47.0,31.2,29.81,South,184,0.0,0.0,54,0.00,,,0.00,Wunderground v.1.15,2013-11-10 23:43:00,
2013-11-10 17:49:00,46.7,31.4,29.81,South,184,0.0,0.0,55,0.00,,,0.00,Wunderground v.1.15,2013-11-10 23:49:00,
2013-11-10 17:55:00,46.3,31.4,29.81,South,184,0.0,0.0,56,0.00,,,0.00,Wunderground v.1.15,2013-11-10 23:55:00,
2013-11-10 18:00:00,45.9,31.1,29.81,South,184,0.0,0.0,56,0.00,,,0.00,Wunderground v.1.15,2013-11-11 00:00:00,
2013-11-10 18:06:00,45.6,31.7,29.81,South,184,0.0,0.0,58,0.00,,,0.00,Wunderground v.1.15,2013-11-11 00:06:00,
2013-11-10 18:11:00,45.4,31.0,29.81,South,184,0.0,0.0,57,0.00,,,0.00,Wunderground v.1.15,2013-11-11 00:11:00,
2013-11-10 18:16:00,45.2,30.9,29.81,South,184,0.0,0.0,57,0.00,,,0.00,Wunderground v.1.15,2013-11-11 00:16:00,
2013-11-10 18:22:00,45.1,30.8,29.81,South,184,0.0,0.0,57,0.00,,,0.00,Wunderground v.1.15,2013-11-11 00:22:00,
2013-11-10 18:27:00,45.1,31.2,29.81,South,184,0.0,0.0,58,0.00,,,0.00,Wunderground v.1.15,2013-11-11 00:27:00,
2013-11-10 18:32:00,45.1,31.6,29.81,South,184,0.0,0.0,59,0.00,,,0.00,Wunderground v.1.15,2013-11-11 00:32:00,
2013-11-10 18:38:00,44.9,31.4,29.81,South,184,0.0,0.0,59,0.00,,,0.00,Wunderground v.1.15,2013-11-11 00:38:00,
2013-11-10 18:44:00,44.9,31.4,29.81,South,184,0.0,0.0,59,0.00,,,0.00,Wunderground v.1.15,2013-11-11 00:44:00,
2013-11-10 18:49:00,44.9,31.4,29.80,South,184,0.0,0.0,59,0.00,,,0.00,Wunderground v.1.15,2013-11-11 00:49:00,
2013-11-10 18:54:00,44.6,31.1,29.81,South,183,0.0,0.0,59,0.00,,,0.00,Wunderground v.1.15,2013-11-11 00:54:00,
2013-11-10 19:00:00,44.6,31.1,29.80,South,184,0.0,0.0,59,0.00,,,0.00,Wunderground v.1.15,2013-11-11 01:00:00,
2013-11-10 19:06:00,44.5,31.1,29.80,South,184,0.0,0.0,59,0.00,,,0.00,Wunderground v.1.15,2013-11-11 01:06:00,
2013-11-10 19:11:00,44.3,31.3,29.80,South,184,0.0,0.0,60,0.00,,,0.00,Wunderground v.1.15,2013-11-11 01:11:00,
2013-11-10 19:17:00,44.1,31.1,29.80,South,184,0.0,0.0,60,0.00,,,0.00,Wunderground v.1.15,2013-11-11 01:17:00,
2013-11-10 19:23:00,44.0,-99.9,29.80,South,184,0.0,0.0,255,0.00,,,0.00,Wunderground v.1.15,2013-11-11 01:23:00,
2013-11-10 19:28:00,44.0,31.4,29.80,South,182,0.0,0.0,61,0.00,,,0.00,Wunderground v.1.15,2013-11-11 01:28:00,
2013-11-10 19:34:00,43.6,31.4,29.80,South,184,0.0,0.0,62,0.00,,,0.00,Wunderground v.1.15,2013-11-11 01:34:00,
2013-11-10 19:40:00,-90.0,-96.3,29.80,South,184,0.0,0.0,61,0.00,,,0.00,Wunderground v.1.15,2013-11-11 01:40:00,
2013-11-10 19:45:00,43.2,31.4,29.80,South,184,0.0,0.0,63,0.00,,,0.00,Wunderground v.1.15,2013-11-11 01:45:00,
2013-11-10 19:51:00,43.1,31.4,29.80,South,184,0.0,0.0,63,0.00,,,0.00,Wunderground v.1.15,2013-11-11 01:51:00,
2013-11-10 19:57:00,43.7,31.1,29.79,South,184,0.0,0.0,61,0.00,,,0.00,Wunderground v.1.15,2013-11-11 01:57:00,
2013-11-10 20:02:00,43.4,30.8,29.79,South,184,0.0,0.0,61,0.00,,,0.00,Wunderground v.1.15,2013-11-11 02:02:00,
2013-11-10 20:08:00,43.2,30.6,29.79,South,184,0.0,0.0,61,0.00,,,0.00,Wunderground v.1.15,2013-11-11 02:08:00,
2013-11-10 20:14:00,43.5,30.1,29.80,South,184,0.0,0.0,59,0.00,,,0.00,Wunderground v.1.15,2013-11-11 02:14:00,
2013-11-10 20:19:00,43.2,30.2,29.79,South,184,0.0,0.0,60,0.00,,,0.00,Wunderground v.1.15,2013-11-11 02:19:00,
2013-11-10 20:25:00,43.0,30.9,29.79,South,184,0.0,0.0,62,0.00,,,0.00,Wunderground v.1.15,2013-11-11 02:25:00,
2013-11-10 20:30:00,42.8,31.1,29.79,South,184,0.0,0.0,63,0.00,,,0.00,Wunderground v.1.15,2013-11-11 02:30:00,
2013-11-10 20:36:00,42.5,30.4,29.79,South,184,0.0,0.0,62,0.00,,,0.00,Wunderground v.1.15,2013-11-11 02:36:00,
2013-11-10 20:42:00,42.3,30.6,29.79,South,184,0.0,0.0,63,0.00,,,0.00,Wunderground v.1.15,2013-11-11 02:42:00,
2013-11-10 20:47:00,42.2,30.5,29.79,South,184,0.0,2.0,63,0.00,,,0.00,Wunderground v.1.15,2013-11-11 02:47:00,
2013-11-10 20:53:00,42.2,30.5,29.78,South,180,1.0,4.0,63,0.00,,,0.00,Wunderground v.1.15,2013-11-11 02:53:00,
2013-11-10 20:58:00,42.5,30.4,29.78,South,178,1.0,6.0,62,0.00,,,0.00,Wunderground v.1.15,2013-11-11 02:58:00,
2013-11-10 21:04:00,43.2,30.2,29.78,South,178,0.0,1.0,60,0.00,,,0.00,Wunderground v.1.15,2013-11-11 03:04:00,
2013-11-10 21:09:00,43.6,30.6,29.78,South,178,0.0,1.0,60,0.00,,,0.00,Wunderground v.1.15,2013-11-11 03:09:00,
2013-11-10 21:15:00,44.0,30.6,29.78,SSE,155,0.0,0.0,59,0.00,,,0.00,Wunderground v.1.15,2013-11-11 03:15:00,
2013-11-10 21:21:00,43.7,30.7,29.78,South,178,0.0,0.0,60,0.00,,,0.00,Wunderground v.1.15,2013-11-11 03:21:00,
2013-11-10 21:26:00,43.6,30.2,29.78,South,178,0.0,0.0,59,0.00,,,0.00,Wunderground v.1.15,2013-11-11 03:26:00,
2013-11-10 21:32:00,43.4,30.0,29.78,South,178,0.0,0.0,59,0.00,,,0.00,Wunderground v.1.15,2013-11-11 03:32:00,
2013-11-10 21:37:00,43.4,30.4,29.78,South,178,0.0,0.0,60,0.00,,,0.00,Wunderground v.1.15,2013-11-11 03:37:00,
2013-11-10 21:43:00,43.3,30.3,29.78,South,178,0.0,0.0,60,0.00,,,0.00,Wunderground v.1.15,2013-11-11 03:43:00,
2013-11-10 21:49:00,43.2,30.2,29.78,South,178,0.0,0.0,60,0.00,,,0.00,Wunderground v.1.15,2013-11-11 03:49:00,
2013-11-10 21:55:00,43.2,30.6,29.78,South,178,0.0,0.0,61,0.00,,,0.00,Wunderground v.1.15,2013-11-11 03:55:00,
2013-11-10 22:01:00,43.2,31.1,29.78,South,178,0.0,0.0,62,0.00,,,0.00,Wunderground v.1.15,2013-11-11 04:01:00,
2013-11-10 22:06:00,43.4,30.8,29.78,South,178,0.0,0.0,61,0.00,,,0.00,Wunderground v.1.15,2013-11-11 04:06:00,
2013-11-10 22:12:00,43.6,30.6,29.77,South,178,0.0,0.0,60,0.00,,,0.00,Wunderground v.1.15,2013-11-11 04:12:00,
2013-11-10 22:17:00,43.9,30.9,29.77,South,178,0.0,0.0,60,0.00,,,0.00,Wunderground v.1.15,2013-11-11 04:17:00,
2013-11-10 22:23:00,44.1,30.7,29.77,South,178,0.0,0.0,59,0.00,,,0.00,Wunderground v.1.15,2013-11-11 04:23:00,
2013-11-10 22:28:00,44.1,30.7,29.77,South,178,0.0,0.0,59,0.00,,,0.00,Wunderground v.1.15,2013-11-11 04:28:00,
2013-11-10 22:34:00,44.3,30.4,29.77,South,178,0.0,0.0,58,0.00,,,0.00,Wunderground v.1.15,2013-11-11 04:34:00,
2013-11-10 22:39:00,44.3,31.3,29.77,South,178,0.0,2.0,60,0.00,,,0.00,Wunderground v.1.15,2013-11-11 04:39:00,
2013-11-10 22:45:00,44.2,31.6,29.77,South,178,0.0,0.0,61,0.00,,,0.00,Wunderground v.1.15,2013-11-11 04:45:00,
2013-11-10 22:51:00,44.2,31.2,29.76,South,177,0.0,4.0,60,0.00,,,0.00,Wunderground v.1.15,2013-11-11 04:51:00,
2013-11-10 22:56:00,44.3,31.3,29.76,South,173,1.0,5.0,60,0.00,,,0.00,Wunderground v.1.15,2013-11-11 04:56:00,
2013-11-10 23:01:00,44.4,31.0,29.76,South,170,1.0,5.0,59,0.00,,,0.00,Wunderground v.1.15,2013-11-11 05:01:00,
2013-11-10 23:02:00,44.4,31.4,29.76,South,170,1.0,1.0,60,0.00,,,0.00,Wunderground v.1.15,2013-11-11 05:02:00,
2013-11-10 23:03:00,44.5,31.5,29.76,South,170,1.0,1.0,60,0.00,,,0.00,Wunderground v.1.15,2013-11-11 05:03:00,
2013-11-10 23:04:00,44.5,31.1,29.76,South,170,1.0,1.0,59,0.00,,,0.00,Wunderground v.1.15,2013-11-11 05:04:00,
2013-11-10 23:09:00,44.5,31.5,29.76,South,170,1.0,2.0,60,0.00,,,0.00,Wunderground v.1.15,2013-11-11 05:09:00,
2013-11-10 23:15:00,44.6,31.6,29.76,SSE,165,1.0,1.0,60,0.00,,,0.00,Wunderground v.1.15,2013-11-11 05:15:00,
2013-11-10 23:18:00,44.6,31.6,29.76,SSE,164,1.0,1.0,60,0.00,,,0.00,Wunderground v.1.15,2013-11-11 05:18:00,
2013-11-10 23:24:00,44.7,31.7,29.76,SSE,163,1.0,4.0,60,0.00,,,0.00,Wunderground v.1.15,2013-11-11 05:24:00,
2013-11-10 23:29:00,44.8,31.3,29.75,SSE,158,1.0,4.0,59,0.00,,,0.00,Wunderground v.1.15,2013-11-11 05:29:00,
2013-11-10 23:35:00,45.0,31.5,29.75,SSE,159,2.0,6.0,59,0.00,,,0.00,Wunderground v.1.15,2013-11-11 05:35:00,
2013-11-10 23:41:00,45.0,31.5,29.75,SSE,166,3.0,6.0,59,0.00,,,0.00,Wunderground v.1.15,2013-11-11 05:41:00,
2013-11-10 23:47:00,45.1,31.2,29.75,SSE,158,3.0,5.0,58,0.00,,,0.00,Wunderground v.1.15,2013-11-11 05:47:00,
2013-11-10 23:53:00,45.3,31.0,29.75,SSE,160,3.0,3.0,57,0.00,,,0.00,Wunderground v.1.15,2013-11-11 05:53:00,
2013-11-10 23:58:00,45.1,31.2,29.75,SSE,162,2.0,3.0,58,0.00,,,0.00,Wunderground v.1.15,2013-11-11 05:58:00,